createdAt,value
2024-03-24T00:00:21.359Z,99929.29
2024-03-24T00:03:12.654Z,99930.04
2024-03-24T00:05:43.179Z,99925.23
2024-03-24T00:08:13.682Z,99923.63
2024-03-24T00:10:44.208Z,99919.79
2024-03-24T00:13:14.712Z,99918.90
2024-03-24T00:15:45.215Z,99919.25
2024-03-24T00:18:15.674Z,99919.61
2024-03-24T00:20:46.130Z,99915.20
2024-03-24T00:23:17.281Z,99916.48
2024-03-24T00:25:47.828Z,99908.09
2024-03-24T00:28:18.337Z,99902.95
2024-03-24T00:30:48.804Z,99900.23
2024-03-24T00:33:21.176Z,99895.03
2024-03-24T00:35:51.801Z,99893.31
2024-03-24T00:38:22.507Z,99892.18
2024-03-24T00:40:53.116Z,99887.63
2024-03-24T00:43:23.606Z,99881.14
2024-03-24T00:45:54.125Z,99882.45
2024-03-24T00:48:24.538Z,99878.98
2024-03-24T00:50:55.008Z,99879.36
2024-03-24T00:53:25.618Z,99880.27
2024-03-24T00:55:56.443Z,99877.30
2024-03-24T00:58:26.938Z,99877.14
2024-03-24T01:00:57.457Z,99875.79
2024-03-24T01:03:27.946Z,99872.73
2024-03-24T01:05:58.863Z,99873.10
2024-03-24T01:08:29.352Z,99873.65
2024-03-24T01:11:00.655Z,99872.84
2024-03-24T01:13:31.150Z,99869.33
2024-03-24T01:16:01.602Z,99867.68
2024-03-24T01:18:32.065Z,99868.20
2024-03-24T01:21:03.383Z,99869.78
2024-03-24T01:23:33.884Z,99867.85
2024-03-24T01:26:04.511Z,99868.75
2024-03-24T01:28:34.950Z,99869.41
2024-03-24T01:31:05.682Z,99867.70
2024-03-24T01:33:36.198Z,99868.80
2024-03-24T01:36:07.846Z,99867.33
2024-03-24T01:38:38.327Z,99861.20
2024-03-24T01:41:08.838Z,99855.20
2024-03-24T01:43:39.407Z,99852.66
2024-03-24T01:46:10.039Z,99848.27
2024-03-24T01:48:40.613Z,99849.30
2024-03-24T01:51:11.220Z,99847.48
2024-03-24T01:53:41.730Z,99845.11
2024-03-24T01:56:12.306Z,99848.23
2024-03-24T01:58:42.809Z,99845.34
2024-03-24T02:01:13.280Z,99848.43
2024-03-24T02:03:43.743Z,99853.14
2024-03-24T02:06:14.572Z,99852.55
2024-03-24T02:08:45.078Z,99853.67
2024-03-24T02:11:15.613Z,99849.98
2024-03-24T02:13:46.128Z,99844.80
2024-03-24T02:16:16.611Z,99843.11
2024-03-24T02:18:51.092Z,99845.42
2024-03-24T02:21:22.000Z,99842.46
2024-03-24T02:23:52.442Z,99832.30
2024-03-24T02:26:22.900Z,99827.67
2024-03-24T02:28:53.536Z,99826.17
2024-03-24T02:31:23.826Z,99825.08
2024-03-24T02:33:54.262Z,99818.27
2024-03-24T02:36:24.841Z,99819.57
2024-03-24T02:38:55.304Z,99826.11
2024-03-24T02:41:26.193Z,99827.56
2024-03-24T02:43:56.998Z,99822.08
2024-03-24T02:46:27.473Z,99816.14
2024-03-24T02:48:57.966Z,99814.00
2024-03-24T02:51:28.363Z,99808.67
2024-03-24T02:53:58.847Z,99800.23
2024-03-24T02:56:29.267Z,99796.98
2024-03-24T02:58:59.862Z,99790.18
2024-03-24T03:01:30.483Z,99784.11
2024-03-24T03:04:01.067Z,99778.51
2024-03-24T03:06:31.605Z,99778.58
2024-03-24T03:09:08.865Z,99775.08
2024-03-24T03:11:39.682Z,99768.95
2024-03-24T03:14:10.210Z,99767.70
2024-03-24T03:16:41.815Z,99767.70
2024-03-24T03:19:12.410Z,99772.98
2024-03-24T03:21:43.046Z,99785.54
2024-03-24T03:24:13.524Z,99790.61
2024-03-24T03:26:44.100Z,99791.08
2024-03-24T03:29:14.572Z,99785.90
2024-03-24T03:31:45.136Z,99789.61
2024-03-24T03:34:15.781Z,99783.31
2024-03-24T03:36:46.315Z,99781.27
2024-03-24T03:39:16.808Z,99772.50
2024-03-24T03:41:47.332Z,99771.73
2024-03-24T03:44:17.961Z,99780.63
2024-03-24T03:46:48.540Z,99788.73
2024-03-24T03:49:19.101Z,99789.84
2024-03-24T03:51:57.418Z,99793.33
2024-03-24T03:54:27.840Z,99795.38
2024-03-24T03:56:58.323Z,99793.11
2024-03-24T03:59:28.856Z,99787.61
2024-03-24T04:01:59.284Z,99785.80
2024-03-24T04:04:30.171Z,99790.80
2024-03-24T04:07:00.617Z,99784.91
2024-03-24T04:09:31.082Z,99778.94
2024-03-24T04:12:01.615Z,99770.34
2024-03-24T04:14:32.056Z,99767.72
2024-03-24T04:17:02.508Z,99756.65
2024-03-24T04:19:33.043Z,99755.50
2024-03-24T04:22:03.618Z,99751.77
2024-03-24T04:24:34.099Z,99753.15
2024-03-24T04:27:05.587Z,99762.41
2024-03-24T04:29:36.296Z,99771.57
2024-03-24T04:32:07.877Z,99778.52
2024-03-24T04:34:39.992Z,99779.55
2024-03-24T04:37:10.507Z,99771.16
2024-03-24T04:39:40.927Z,99764.84
2024-03-24T04:42:11.599Z,99770.63
2024-03-24T04:44:42.203Z,99774.19
2024-03-24T04:47:12.707Z,99775.96
2024-03-24T04:49:43.346Z,99775.60
2024-03-24T04:52:13.774Z,99775.02
2024-03-24T04:54:44.480Z,99772.34
2024-03-24T04:57:15.043Z,99775.61
2024-03-24T04:59:45.559Z,99780.10
2024-03-24T05:02:16.085Z,99778.96
2024-03-24T05:04:47.101Z,99778.85
2024-03-24T05:07:17.688Z,99784.33
2024-03-24T05:09:48.228Z,99782.55
2024-03-24T05:12:18.693Z,99783.16
2024-03-24T05:14:49.311Z,99786.79
2024-03-24T05:17:19.750Z,99784.79
2024-03-24T05:19:50.268Z,99782.58
2024-03-24T05:22:20.802Z,99780.27
2024-03-24T05:24:51.231Z,99782.16
2024-03-24T05:27:21.736Z,99783.36
2024-03-24T05:29:52.356Z,99782.23
2024-03-24T05:32:22.903Z,99779.99
2024-03-24T05:34:53.491Z,99777.48
2024-03-24T05:37:23.953Z,99773.08
2024-03-24T05:39:54.426Z,99775.92
2024-03-24T05:42:24.869Z,99776.62
2024-03-24T05:44:55.280Z,99775.95
2024-03-24T05:47:25.789Z,99773.04
2024-03-24T05:49:57.476Z,99765.41
2024-03-24T05:52:28.667Z,99763.30
2024-03-24T05:54:59.213Z,99758.64
2024-03-24T05:57:29.780Z,99762.29
2024-03-24T06:00:00.489Z,99747.08
2024-03-24T06:02:31.183Z,99750.95
2024-03-24T06:05:01.685Z,99762.40
2024-03-24T06:07:32.244Z,99764.48
2024-03-24T06:10:04.754Z,99756.13
2024-03-24T06:12:35.188Z,99766.60
2024-03-24T06:15:06.236Z,99778.85
2024-03-24T06:17:36.660Z,99770.85
2024-03-24T06:20:08.403Z,99758.15
2024-03-24T06:22:38.883Z,99749.16
2024-03-24T06:25:10.043Z,99749.80
2024-03-24T06:27:40.540Z,99747.70
2024-03-24T06:30:12.064Z,99756.54
2024-03-24T06:32:42.594Z,99751.88
2024-03-24T06:35:13.189Z,99756.95
2024-03-24T06:37:43.626Z,99777.57
2024-03-24T06:40:14.318Z,99766.36
2024-03-24T06:42:49.843Z,99753.88
2024-03-24T06:45:20.413Z,99751.67
2024-03-24T06:47:50.958Z,99761.73
2024-03-24T06:50:21.398Z,99764.52
2024-03-24T06:52:53.526Z,99763.42
2024-03-24T06:55:24.142Z,99766.23
2024-03-24T06:57:54.793Z,99759.10
2024-03-24T07:00:25.468Z,99764.20
2024-03-24T07:02:55.940Z,99763.81
2024-03-24T07:05:27.627Z,99760.96
2024-03-24T07:07:58.152Z,99770.47
2024-03-24T07:10:28.647Z,99770.10
2024-03-24T07:12:59.164Z,99763.19
2024-03-24T07:15:29.715Z,99758.27
2024-03-24T07:18:00.239Z,99758.75
2024-03-24T07:20:30.818Z,99756.49
2024-03-24T07:23:01.364Z,99756.99
2024-03-24T07:25:31.875Z,99751.77
2024-03-24T07:28:02.310Z,99752.20
2024-03-24T07:30:32.826Z,99760.27
2024-03-24T07:33:03.366Z,99761.66
2024-03-24T07:35:34.415Z,99774.18
2024-03-24T07:38:05.099Z,99781.48
2024-03-24T07:40:35.675Z,99779.91
2024-03-24T07:43:06.323Z,99772.79
2024-03-24T07:45:36.782Z,99768.38
2024-03-24T07:48:11.165Z,99773.77
2024-03-24T07:50:42.546Z,99766.42
2024-03-24T07:53:13.093Z,99771.30
2024-03-24T07:55:45.142Z,99770.34
2024-03-24T07:58:15.756Z,99767.04
2024-03-24T08:00:46.365Z,99758.86
2024-03-24T08:03:16.981Z,99756.96
2024-03-24T08:05:47.801Z,99758.22
2024-03-24T08:08:18.906Z,99755.83
2024-03-24T08:10:49.375Z,99757.42
2024-03-24T08:13:20.013Z,99752.02
2024-03-24T08:15:50.547Z,99748.88
2024-03-24T08:18:21.416Z,99748.57
2024-03-24T08:20:53.911Z,99751.49
2024-03-24T08:23:25.689Z,99759.98
2024-03-24T08:25:56.350Z,99753.62
2024-03-24T08:28:27.840Z,99748.33
2024-03-24T08:30:58.735Z,99742.84
2024-03-24T08:33:29.225Z,99741.84
2024-03-24T08:35:59.704Z,99742.19
2024-03-24T08:38:30.333Z,99736.17
2024-03-24T08:41:00.898Z,99733.91
2024-03-24T08:43:31.421Z,99736.52
2024-03-24T08:46:01.942Z,99732.64
2024-03-24T08:48:38.414Z,99732.05
2024-03-24T08:51:12.790Z,99726.58
2024-03-24T08:53:43.262Z,99722.01
2024-03-24T08:56:13.845Z,99723.37
2024-03-24T08:58:44.303Z,99720.77
2024-03-24T09:01:14.947Z,99718.95
2024-03-24T09:03:45.405Z,99708.92
2024-03-24T09:06:16.548Z,99700.25
2024-03-24T09:08:47.073Z,99699.04
2024-03-24T09:11:17.613Z,99695.37
2024-03-24T09:13:48.128Z,99693.79
2024-03-24T09:16:18.652Z,99687.62
2024-03-24T09:18:49.216Z,99690.70
2024-03-24T09:21:19.708Z,99680.17
2024-03-24T09:23:52.173Z,99680.46
2024-03-24T09:26:25.304Z,99680.41
2024-03-24T09:28:55.784Z,99678.36
2024-03-24T09:31:26.840Z,99675.91
2024-03-24T09:33:57.303Z,99667.08
2024-03-24T09:36:28.198Z,99667.16
2024-03-24T09:38:58.700Z,99656.84
2024-03-24T09:41:29.608Z,99662.55
2024-03-24T09:44:00.781Z,99658.92
2024-03-24T09:46:31.283Z,99655.73
2024-03-24T09:49:01.757Z,99654.17
2024-03-24T09:51:32.353Z,99648.19
2024-03-24T09:54:03.014Z,99645.27
2024-03-24T09:56:33.602Z,99643.64
2024-03-24T09:59:04.734Z,99631.24
2024-03-24T10:01:39.140Z,99631.74
2024-03-24T10:04:09.767Z,99627.36
2024-03-24T10:06:40.279Z,99623.13
2024-03-24T10:09:10.921Z,99616.77
2024-03-24T10:11:41.469Z,99612.77
2024-03-24T10:14:11.936Z,99608.03
2024-03-24T10:16:42.467Z,99609.95
2024-03-24T10:19:13.644Z,99613.54
2024-03-24T10:21:44.198Z,99600.50
2024-03-24T10:24:14.721Z,99597.07
2024-03-24T10:26:45.304Z,99592.04
2024-03-24T10:29:15.857Z,99588.07
2024-03-24T10:31:49.758Z,99587.79
2024-03-24T10:34:21.666Z,99579.55
2024-03-24T10:36:52.287Z,99575.30
2024-03-24T10:39:23.662Z,99573.89
2024-03-24T10:41:55.034Z,99567.69
2024-03-24T10:44:26.738Z,99563.29
2024-03-24T10:46:57.312Z,99561.01
2024-03-24T10:49:28.632Z,99557.17
2024-03-24T10:52:01.837Z,99545.52
2024-03-24T10:54:32.392Z,99535.91
2024-03-24T10:57:02.973Z,99531.29
2024-03-24T10:59:33.909Z,99530.88
2024-03-24T11:02:04.540Z,99528.15
2024-03-24T11:04:35.187Z,99532.52
2024-03-24T11:07:06.428Z,99517.87
2024-03-24T11:09:37.072Z,99518.63
2024-03-24T11:12:08.625Z,99518.25
2024-03-24T11:14:39.152Z,99512.44
2024-03-24T11:17:10.162Z,99505.70
2024-03-24T11:19:40.848Z,99509.27
2024-03-24T11:22:11.531Z,99507.66
2024-03-24T11:24:42.051Z,99505.58
2024-03-24T11:27:14.991Z,99500.73
2024-03-24T11:29:56.036Z,99489.73
2024-03-24T11:32:29.572Z,99487.37
2024-03-24T11:35:00.728Z,99480.73
2024-03-24T11:37:32.759Z,99482.88
2024-03-24T11:40:03.307Z,99476.09
2024-03-24T11:42:34.808Z,99469.80
2024-03-24T11:45:18.643Z,99472.51
2024-03-24T11:47:53.556Z,99467.27
2024-03-24T11:50:36.788Z,99462.35
2024-03-24T11:53:07.356Z,99458.31
2024-03-24T11:55:37.815Z,99458.71
2024-03-24T11:58:08.340Z,99457.63
2024-03-24T12:00:38.937Z,99452.18
2024-03-24T12:03:09.527Z,99455.13
2024-03-24T12:05:40.147Z,99462.30
2024-03-24T12:08:10.750Z,99460.75
2024-03-24T12:10:41.221Z,99449.60
2024-03-24T12:13:12.031Z,99443.89
2024-03-24T12:15:42.666Z,99450.52
2024-03-24T12:18:13.730Z,99444.96
2024-03-24T12:20:44.346Z,99442.88
2024-03-24T12:23:15.521Z,99441.36
2024-03-24T12:25:50.830Z,99427.27
2024-03-24T12:28:21.711Z,99430.61
2024-03-24T12:30:52.386Z,99423.49
2024-03-24T12:33:23.129Z,99419.65
2024-03-24T12:35:54.122Z,99426.09
2024-03-24T12:38:24.662Z,99425.60
2024-03-24T12:40:55.546Z,99425.37
2024-03-24T12:43:29.265Z,99419.29
2024-03-24T12:46:03.005Z,99415.59
2024-03-24T12:48:34.103Z,99412.67
2024-03-24T12:51:04.787Z,99407.67
2024-03-24T12:53:38.876Z,99405.77
2024-03-24T12:56:09.958Z,99412.73
2024-03-24T12:58:41.290Z,99402.29
2024-03-24T13:01:11.886Z,99401.16
2024-03-24T13:03:42.397Z,99396.33
2024-03-24T13:06:13.698Z,99394.67
2024-03-24T13:08:45.539Z,99390.27
2024-03-24T13:11:22.695Z,99387.63
2024-03-24T13:13:53.785Z,99388.65
2024-03-24T13:16:30.220Z,99391.55
2024-03-24T13:19:03.121Z,99383.59
2024-03-24T13:21:34.576Z,99379.05
2024-03-24T13:24:05.367Z,99386.98
2024-03-24T13:26:40.376Z,99375.66
2024-03-24T13:29:10.962Z,99373.84
2024-03-24T13:31:41.547Z,99369.38
2024-03-24T13:34:12.222Z,99371.06
2024-03-24T13:36:46.732Z,99365.79
2024-03-24T13:39:19.120Z,99370.28
2024-03-24T13:41:52.245Z,99358.55
2024-03-24T13:44:25.798Z,99359.65
2024-03-24T13:47:02.980Z,99359.95
2024-03-24T13:49:33.566Z,99355.61
2024-03-24T13:52:04.166Z,99356.81
2024-03-24T13:54:34.978Z,99351.66
2024-03-24T13:57:05.697Z,99353.14
2024-03-24T13:59:36.364Z,99350.92
2024-03-24T14:02:07.213Z,99347.66
2024-03-24T14:04:37.822Z,99343.80
2024-03-24T14:07:08.453Z,99334.63
2024-03-24T14:09:39.047Z,99332.77
2024-03-24T14:12:09.918Z,99327.63
2024-03-24T14:14:45.113Z,99323.78
2024-03-24T14:17:19.625Z,99323.45
2024-03-24T14:19:51.084Z,99328.66
2024-03-24T14:22:22.179Z,99329.24
2024-03-24T14:24:55.969Z,99330.63
2024-03-24T14:27:26.568Z,99323.88
2024-03-24T14:29:57.188Z,99324.20
2024-03-24T14:32:27.896Z,99318.28
2024-03-24T14:34:58.579Z,99320.17
2024-03-24T14:37:36.649Z,99321.13
2024-03-24T14:40:20.618Z,99319.09
2024-03-24T14:42:53.495Z,99305.78
2024-03-24T14:45:27.618Z,99299.73
2024-03-24T14:48:01.449Z,99299.60
2024-03-24T14:50:31.903Z,99304.05
2024-03-24T14:53:02.436Z,99294.95
2024-03-24T14:55:32.992Z,99299.05
2024-03-24T14:58:03.623Z,99296.39
2024-03-24T15:00:34.205Z,99293.52
2024-03-24T15:03:05.284Z,99296.38
2024-03-24T15:05:37.508Z,99296.43
2024-03-24T15:08:08.759Z,99294.65
2024-03-24T15:10:39.446Z,99295.42
2024-03-24T15:13:11.548Z,99297.12
2024-03-24T15:15:42.267Z,99296.88
2024-03-24T15:18:12.776Z,99290.97
2024-03-24T15:20:43.374Z,99292.41
2024-03-24T15:23:14.065Z,99288.70
2024-03-24T15:25:44.623Z,99288.87
2024-03-24T15:28:15.022Z,99289.27
2024-03-24T15:30:45.571Z,99282.30
2024-03-24T15:33:16.054Z,99285.50
2024-03-24T15:35:46.546Z,99280.27
2024-03-24T15:38:16.962Z,99283.90
2024-03-24T15:40:50.564Z,99288.63
2024-03-24T15:43:22.711Z,99287.23
2024-03-24T15:45:53.110Z,99283.66
2024-03-24T15:48:23.627Z,99281.63
2024-03-24T15:50:54.148Z,99279.46
2024-03-24T15:53:24.644Z,99277.99
2024-03-24T15:55:56.849Z,99275.33
2024-03-24T15:58:30.884Z,99271.74
2024-03-24T16:01:03.409Z,99269.63
2024-03-24T16:03:34.519Z,99274.91
2024-03-24T16:06:05.330Z,99275.31
2024-03-24T16:08:35.862Z,99277.02
2024-03-24T16:11:07.467Z,99271.42
2024-03-24T16:13:41.461Z,99272.98
2024-03-24T16:16:17.511Z,99266.20
2024-03-24T16:18:47.881Z,99265.36
2024-03-24T16:21:21.303Z,99260.90
2024-03-24T16:23:51.915Z,99258.19
2024-03-24T16:26:23.908Z,99260.90
2024-03-24T16:28:56.573Z,99258.08
2024-03-24T16:31:27.192Z,99258.11
2024-03-24T16:33:58.465Z,99255.11
2024-03-24T16:36:29.004Z,99255.19
2024-03-24T16:39:00.340Z,99251.77
2024-03-24T16:41:31.665Z,99244.62
2024-03-24T16:44:02.224Z,99246.56
2024-03-24T16:46:32.877Z,99243.13
2024-03-24T16:49:05.833Z,99244.92
2024-03-24T16:51:36.346Z,99243.91
2024-03-24T16:54:07.064Z,99244.17
2024-03-24T16:56:37.792Z,99242.95
2024-03-24T16:59:08.386Z,99243.04
2024-03-24T17:01:38.972Z,99244.23
2024-03-24T17:04:09.487Z,99250.77
2024-03-24T17:06:40.150Z,99251.45
2024-03-24T17:09:12.352Z,99252.83
2024-03-24T17:11:42.949Z,99261.76
2024-03-24T17:14:13.433Z,99272.08
2024-03-24T17:16:44.009Z,99277.04
2024-03-24T17:19:17.728Z,99274.72
2024-03-24T17:21:48.488Z,99279.91
2024-03-24T17:24:23.562Z,99280.64
2024-03-24T17:26:55.254Z,99276.77
2024-03-24T17:29:25.977Z,99268.97
2024-03-24T17:31:56.613Z,99259.51
2024-03-24T17:34:27.146Z,99263.25
2024-03-24T17:36:57.685Z,99263.19
2024-03-24T17:39:29.329Z,99265.38
2024-03-24T17:41:59.865Z,99278.85
2024-03-24T17:44:30.562Z,99282.09
2024-03-24T17:47:01.136Z,99289.89
2024-03-24T17:49:31.692Z,99290.50
2024-03-24T17:52:04.169Z,99292.07
2024-03-24T17:54:34.847Z,99291.48
2024-03-24T17:57:05.559Z,99291.40
2024-03-24T17:59:36.085Z,99294.17
2024-03-24T18:02:07.555Z,99299.81
2024-03-24T18:04:38.287Z,99290.41
2024-03-24T18:07:26.258Z,99290.20
2024-03-24T18:10:20.112Z,99285.20
2024-03-24T18:12:51.752Z,99279.83
2024-03-24T18:15:22.587Z,99275.63
2024-03-24T18:17:53.321Z,99277.92
2024-03-24T18:20:24.544Z,99284.19
2024-03-24T18:22:55.111Z,99283.38
2024-03-24T18:25:25.821Z,99292.69
2024-03-24T18:27:56.232Z,99303.52
2024-03-24T18:30:26.633Z,99306.45
2024-03-24T18:32:57.153Z,99307.26
2024-03-24T18:35:27.655Z,99308.98
2024-03-24T18:37:58.261Z,99306.86
2024-03-24T18:40:28.766Z,99311.23
2024-03-24T18:43:00.970Z,99313.19
2024-03-24T18:45:31.478Z,99315.79
2024-03-24T18:48:03.367Z,99322.68
2024-03-24T18:50:33.967Z,99334.38
2024-03-24T18:53:05.564Z,99346.33
2024-03-24T18:55:36.123Z,99366.05
2024-03-24T18:58:06.856Z,99387.47
2024-03-24T19:00:37.278Z,99408.63
2024-03-24T19:03:12.217Z,99413.88
2024-03-24T19:05:44.120Z,99406.30
2024-03-24T19:08:17.751Z,99398.98
2024-03-24T19:10:48.281Z,99387.04
2024-03-24T19:13:21.374Z,99368.14
2024-03-24T19:15:51.961Z,99342.64
2024-03-24T19:18:22.881Z,99334.96
2024-03-24T19:20:53.530Z,99350.86
2024-03-24T19:23:24.014Z,99361.61
2024-03-24T19:26:00.652Z,99373.80
2024-03-24T19:28:32.447Z,99393.38
2024-03-24T19:31:03.004Z,99421.24
2024-03-24T19:33:34.151Z,99435.03
2024-03-24T19:36:05.324Z,99442.92
2024-03-24T19:38:36.000Z,99458.57
2024-03-24T19:41:06.754Z,99454.33
2024-03-24T19:43:37.184Z,99450.96
2024-03-24T19:46:07.787Z,99466.89
2024-03-24T19:48:38.498Z,99491.55
2024-03-24T19:51:10.848Z,99502.89
2024-03-24T19:53:41.854Z,99504.31
2024-03-24T19:56:12.508Z,99510.52
2024-03-24T19:58:43.230Z,99518.79
2024-03-24T20:01:13.800Z,99535.71
2024-03-24T20:03:45.617Z,99546.77
2024-03-24T20:06:16.231Z,99542.20
2024-03-24T20:08:46.939Z,99514.23
2024-03-24T20:11:17.532Z,99483.08
2024-03-24T20:13:48.069Z,99486.21
2024-03-24T20:16:18.619Z,99484.64
2024-03-24T20:18:49.169Z,99483.66
2024-03-24T20:21:19.699Z,99497.56
2024-03-24T20:23:50.294Z,99481.64
2024-03-24T20:26:20.860Z,99462.66
2024-03-24T20:28:54.039Z,99476.60
2024-03-24T20:31:24.561Z,99483.80
2024-03-24T20:33:55.126Z,99506.73
2024-03-24T20:36:25.626Z,99519.41
2024-03-24T20:38:56.150Z,99526.98
2024-03-24T20:41:28.240Z,99542.96
2024-03-24T20:43:59.900Z,99533.15
2024-03-24T20:46:30.607Z,99523.33
2024-03-24T20:49:01.240Z,99542.88
2024-03-24T20:51:32.418Z,99548.61
2024-03-24T20:54:04.997Z,99552.21
2024-03-24T20:56:35.511Z,99543.04
2024-03-24T20:59:05.997Z,99531.75
2024-03-24T21:01:38.338Z,99519.88
2024-03-24T21:04:08.919Z,99517.63
2024-03-24T21:06:39.281Z,99505.42
2024-03-24T21:09:15.247Z,99494.41
2024-03-24T21:11:45.967Z,99487.55
2024-03-24T21:14:16.555Z,99465.34
2024-03-24T21:16:47.157Z,99444.58
2024-03-24T21:19:17.763Z,99436.65
2024-03-24T21:21:49.394Z,99431.64
2024-03-24T21:24:26.168Z,99428.09
2024-03-24T21:26:57.198Z,99415.04
2024-03-24T21:29:27.945Z,99408.73
2024-03-24T21:31:58.552Z,99394.53
2024-03-24T21:34:29.084Z,99401.36
2024-03-24T21:36:59.872Z,99408.75
2024-03-24T21:39:48.172Z,99422.03
2024-03-24T21:42:20.097Z,99421.52
2024-03-24T21:44:51.332Z,99415.60
2024-03-24T21:47:21.820Z,99414.61
2024-03-24T21:49:52.432Z,99407.60
2024-03-24T21:52:22.993Z,99406.51
2024-03-24T21:54:53.704Z,99404.81
2024-03-24T21:57:24.230Z,99412.25
2024-03-24T21:59:54.796Z,99423.86
2024-03-24T22:02:25.333Z,99439.02
2024-03-24T22:04:56.083Z,99451.00
2024-03-24T22:07:50.370Z,99465.73
2024-03-24T22:10:19.281Z,99490.55
2024-03-24T22:12:50.148Z,99506.39
2024-03-24T22:15:20.837Z,99522.61
2024-03-24T22:17:51.354Z,99523.11
2024-03-24T22:20:22.561Z,99516.65
2024-03-24T22:22:53.071Z,99506.19
2024-03-24T22:25:23.457Z,99492.62
2024-03-24T22:27:53.885Z,99478.81
2024-03-24T22:30:25.400Z,99476.89
2024-03-24T22:32:56.060Z,99485.89
2024-03-24T22:35:26.701Z,99500.38
2024-03-24T22:37:57.187Z,99499.08
2024-03-24T22:40:27.757Z,99488.14
2024-03-24T22:42:58.343Z,99480.66
2024-03-24T22:45:28.900Z,99480.77
2024-03-24T22:47:59.527Z,99480.52
2024-03-24T22:50:30.017Z,99480.30
2024-03-24T22:53:00.655Z,99488.13
2024-03-24T22:55:31.646Z,99493.88
2024-03-24T22:58:02.242Z,99500.55
2024-03-24T23:00:34.609Z,99502.11
2024-03-24T23:03:05.371Z,99500.23
2024-03-24T23:05:36.005Z,99494.85
2024-03-24T23:08:06.919Z,99490.42
2024-03-24T23:10:39.168Z,99488.40
2024-03-24T23:13:09.719Z,99490.90
2024-03-24T23:15:40.217Z,99494.48
2024-03-24T23:18:10.764Z,99486.47
2024-03-24T23:20:41.331Z,99490.60
2024-03-24T23:23:11.791Z,99490.18
2024-03-24T23:25:42.292Z,99489.56
2024-03-24T23:28:12.836Z,99487.24
2024-03-24T23:30:43.284Z,99481.29
2024-03-24T23:33:13.897Z,99475.81
2024-03-24T23:35:44.261Z,99478.38
2024-03-24T23:38:15.268Z,99485.89
2024-03-24T23:40:46.319Z,99481.11
2024-03-24T23:43:16.952Z,99482.23
2024-03-24T23:45:47.469Z,99488.11
2024-03-24T23:48:17.919Z,99488.10
2024-03-24T23:50:48.476Z,99490.37
2024-03-24T23:53:18.960Z,99491.11
2024-03-24T23:55:49.282Z,99492.73
2024-03-24T23:58:19.846Z,99490.41
